createdAt,value
2018-07-06T00:02:38.531Z,63.30
2018-07-06T00:05:18.274Z,64.35
2018-07-06T00:07:57.946Z,63.12
2018-07-06T00:10:37.610Z,64.02
2018-07-06T00:13:17.275Z,64.16
2018-07-06T00:15:56.902Z,64.35
2018-07-06T00:18:36.703Z,64.24
2018-07-06T00:21:16.577Z,63.86
2018-07-06T00:23:56.266Z,64.60
2018-07-06T00:26:35.919Z,65.16
2018-07-06T00:29:15.579Z,65.17
2018-07-06T00:31:55.235Z,65.51
2018-07-06T00:34:34.842Z,65.45
2018-07-06T00:37:14.528Z,64.79
2018-07-06T00:39:54.171Z,65.68
2018-07-06T00:42:34.367Z,65.84
2018-07-06T00:45:14.111Z,65.56
2018-07-06T00:47:53.818Z,65.48
2018-07-06T00:50:33.750Z,64.56
2018-07-06T00:53:13.534Z,64.43
2018-07-06T00:55:53.098Z,65.01
2018-07-06T00:58:32.990Z,64.65
2018-07-06T01:01:12.711Z,63.88
2018-07-06T01:03:52.371Z,63.99
2018-07-06T01:06:31.986Z,64.15
2018-07-06T01:09:11.660Z,63.27
2018-07-06T01:11:51.467Z,63.60
2018-07-06T01:14:31.286Z,63.67
2018-07-06T01:17:16.059Z,63.73
2018-07-06T01:19:56.410Z,62.81
2018-07-06T01:22:36.142Z,63.54
2018-07-06T01:25:15.860Z,63.06
2018-07-06T01:27:55.697Z,63.24
2018-07-06T01:30:35.461Z,62.39
2018-07-06T01:33:15.286Z,62.71
2018-07-06T01:35:54.946Z,62.73
2018-07-06T01:38:34.471Z,62.75
2018-07-06T01:41:14.154Z,62.92
2018-07-06T01:43:53.759Z,62.58
2018-07-06T01:46:33.398Z,62.66
2018-07-06T01:49:13.067Z,61.97
2018-07-06T01:51:52.846Z,62.29
2018-07-06T01:54:32.627Z,62.56
2018-07-06T01:57:12.331Z,62.46
2018-07-06T01:59:52.067Z,61.74
2018-07-06T02:02:31.693Z,61.54
2018-07-06T02:05:11.314Z,61.66
2018-07-06T02:07:51.074Z,61.94
2018-07-06T02:10:30.722Z,62.36
2018-07-06T02:13:10.371Z,61.63
2018-07-06T02:15:50.011Z,62.13
2018-07-06T02:18:29.555Z,62.43
2018-07-06T02:21:09.192Z,62.23
2018-07-06T02:23:48.743Z,62.24
2018-07-06T02:26:29.402Z,61.78
2018-07-06T02:29:09.221Z,62.38
2018-07-06T02:31:48.839Z,62.05
2018-07-06T02:34:28.504Z,62.86
2018-07-06T02:37:08.179Z,62.78
2018-07-06T02:39:47.895Z,62.70
2018-07-06T02:42:27.783Z,63.06
2018-07-06T02:45:07.452Z,63.83
2018-07-06T02:47:47.153Z,63.88
2018-07-06T02:50:26.826Z,63.71
2018-07-06T02:53:06.627Z,63.33
2018-07-06T02:55:46.262Z,63.46
2018-07-06T02:58:26.159Z,63.14
2018-07-06T03:01:05.830Z,64.03
2018-07-06T03:03:45.495Z,63.45
2018-07-06T03:06:25.518Z,63.35
2018-07-06T03:09:05.183Z,63.48
2018-07-06T03:11:44.842Z,64.16
2018-07-06T03:14:24.585Z,64.14
2018-07-06T03:17:04.403Z,64.10
2018-07-06T03:19:44.217Z,64.19
2018-07-06T03:22:24.106Z,63.13
2018-07-06T03:25:03.670Z,63.35
2018-07-06T03:27:43.290Z,64.20
2018-07-06T03:30:23.211Z,63.79
2018-07-06T03:33:03.019Z,63.22
2018-07-06T03:35:42.839Z,63.48
2018-07-06T03:38:22.542Z,63.45
2018-07-06T03:41:02.183Z,62.60
2018-07-06T03:43:41.821Z,62.64
2018-07-06T03:46:21.635Z,62.87
2018-07-06T03:49:01.435Z,61.95
2018-07-06T03:51:41.086Z,62.24
2018-07-06T03:54:20.883Z,61.85
2018-07-06T03:57:00.683Z,62.06
2018-07-06T03:59:40.402Z,61.98
2018-07-06T04:02:20.078Z,62.33
2018-07-06T04:04:59.630Z,62.26
2018-07-06T04:07:39.397Z,61.16
2018-07-06T04:10:19.070Z,61.18
2018-07-06T04:12:58.847Z,61.32
2018-07-06T04:15:38.454Z,61.47
2018-07-06T04:18:18.058Z,61.09
2018-07-06T04:20:57.922Z,61.93
2018-07-06T04:23:37.834Z,61.61
2018-07-06T04:26:17.451Z,61.95
2018-07-06T04:28:57.135Z,61.08
2018-07-06T04:31:36.934Z,61.96
2018-07-06T04:34:16.619Z,61.97
2018-07-06T04:36:56.343Z,62.05
2018-07-06T04:39:36.039Z,61.78
2018-07-06T04:42:15.654Z,62.23
2018-07-06T04:44:55.236Z,61.71
2018-07-06T04:47:34.891Z,61.36
2018-07-06T04:50:14.546Z,61.88
2018-07-06T04:52:54.167Z,61.60
2018-07-06T04:55:33.813Z,61.78
2018-07-06T04:58:13.479Z,61.93
2018-07-06T05:00:53.118Z,62.27
2018-07-06T05:03:32.765Z,62.26
2018-07-06T05:06:12.298Z,63.17
2018-07-06T05:08:51.942Z,62.40
2018-07-06T05:11:31.635Z,62.83
2018-07-06T05:14:11.278Z,62.97
2018-07-06T05:16:50.975Z,63.05
2018-07-06T05:19:30.711Z,63.05
2018-07-06T05:22:10.378Z,63.11
2018-07-06T05:24:50.074Z,63.15
2018-07-06T05:27:29.690Z,64.04
2018-07-06T05:30:09.307Z,63.86
2018-07-06T05:32:48.947Z,63.75
2018-07-06T05:35:28.668Z,63.53
2018-07-06T05:38:08.323Z,63.76
2018-07-06T05:40:47.981Z,63.86
2018-07-06T05:43:27.619Z,63.88
2018-07-06T05:46:07.162Z,63.94
2018-07-06T05:48:46.799Z,64.20
2018-07-06T05:51:26.447Z,63.52
2018-07-06T05:54:06.110Z,63.21
2018-07-06T05:56:45.835Z,63.35
2018-07-06T05:59:25.519Z,64.23
2018-07-06T06:02:05.243Z,63.45
2018-07-06T06:04:44.989Z,63.70
2018-07-06T06:07:20.407Z,64.00
2018-07-06T06:09:48.785Z,63.33
2018-07-06T06:12:17.428Z,63.71
2018-07-06T06:14:45.833Z,63.56
2018-07-06T06:17:14.219Z,63.95
2018-07-06T06:19:42.646Z,63.49
2018-07-06T06:22:11.027Z,62.49
2018-07-06T06:24:39.610Z,63.16
2018-07-06T06:27:08.014Z,63.30
2018-07-06T06:29:37.126Z,62.81
2018-07-06T06:32:06.286Z,62.86
2018-07-06T06:34:34.690Z,63.13
2018-07-06T06:37:03.436Z,62.86
2018-07-06T06:39:32.484Z,63.10
2018-07-06T06:42:01.118Z,62.22
2018-07-06T06:44:29.614Z,62.20
2018-07-06T06:46:58.995Z,62.32
2018-07-06T06:49:28.119Z,62.86
2018-07-06T06:51:56.535Z,62.75
2018-07-06T06:54:24.943Z,61.94
2018-07-06T06:56:53.847Z,62.19
2018-07-06T06:59:22.563Z,61.57
2018-07-06T07:01:50.962Z,62.11
2018-07-06T07:04:19.392Z,62.12
2018-07-06T07:06:47.802Z,61.41
2018-07-06T07:09:16.231Z,61.53
2018-07-06T07:11:44.606Z,60.92
2018-07-06T07:14:13.086Z,61.03
2018-07-06T07:16:41.406Z,61.45
2018-07-06T07:19:09.798Z,60.54
2018-07-06T07:21:38.170Z,61.39
2018-07-06T07:24:06.559Z,60.53
2018-07-06T07:26:34.970Z,59.99
2018-07-06T07:29:03.347Z,59.77
2018-07-06T07:31:31.750Z,59.85
2018-07-06T07:34:00.120Z,60.14
2018-07-06T07:36:28.519Z,60.11
2018-07-06T07:38:56.917Z,59.06
2018-07-06T07:41:25.320Z,59.24
2018-07-06T07:43:53.711Z,59.24
2018-07-06T07:46:22.121Z,59.09
2018-07-06T07:48:50.517Z,59.63
2018-07-06T07:52:12.795Z,59.17
2018-07-06T07:54:52.542Z,59.62
2018-07-06T07:57:21.098Z,59.85
2018-07-06T07:59:50.720Z,59.33
2018-07-06T08:02:19.152Z,59.86
2018-07-06T08:04:48.004Z,59.72
2018-07-06T08:07:16.412Z,59.94
2018-07-06T08:09:44.858Z,59.32
2018-07-06T08:12:13.258Z,59.77
2018-07-06T08:14:42.047Z,58.73
2018-07-06T08:17:10.456Z,58.88
2018-07-06T08:19:38.835Z,59.36
2018-07-06T08:22:07.283Z,58.39
2018-07-06T08:24:35.735Z,58.14
2018-07-06T08:27:04.139Z,57.75
2018-07-06T08:29:32.522Z,58.74
2018-07-06T08:32:00.928Z,58.32
2018-07-06T08:34:40.715Z,58.38
2018-07-06T08:37:37.851Z,57.05
2018-07-06T08:40:06.253Z,56.67
2018-07-06T08:42:35.578Z,56.84
2018-07-06T08:45:04.440Z,56.46
2018-07-06T08:47:32.847Z,56.26
2018-07-06T08:50:02.019Z,56.41
2018-07-06T08:52:30.627Z,55.91
2018-07-06T08:54:59.007Z,55.07
2018-07-06T08:57:28.606Z,55.29
2018-07-06T08:59:56.989Z,54.24
2018-07-06T09:02:25.778Z,53.59
2018-07-06T09:04:55.050Z,54.50
2018-07-06T09:07:23.698Z,54.40
2018-07-06T09:09:52.719Z,52.77
2018-07-06T09:12:21.114Z,52.87
2018-07-06T09:14:49.491Z,52.57
2018-07-06T09:17:18.817Z,52.38
2018-07-06T09:19:47.669Z,51.77
2018-07-06T09:22:16.356Z,51.04
2018-07-06T09:24:45.471Z,51.17
2018-07-06T09:27:14.007Z,51.92
2018-07-06T09:29:42.539Z,51.24
2018-07-06T09:32:11.000Z,51.80
2018-07-06T09:34:39.642Z,50.45
2018-07-06T09:37:08.254Z,50.91
2018-07-06T09:39:36.970Z,50.64
2018-07-06T09:42:05.376Z,50.77
2018-07-06T09:44:33.782Z,50.21
2018-07-06T09:47:02.174Z,50.21
2018-07-06T09:49:30.622Z,49.79
2018-07-06T09:51:59.002Z,50.14
2018-07-06T09:54:27.436Z,49.22
2018-07-06T09:56:55.802Z,48.81
2018-07-06T09:59:24.207Z,48.24
2018-07-06T10:01:52.696Z,48.43
2018-07-06T10:04:21.127Z,47.61
2018-07-06T10:06:49.558Z,47.83
2018-07-06T10:09:17.963Z,47.58
2018-07-06T10:11:46.339Z,48.33
2018-07-06T10:14:14.739Z,46.91
2018-07-06T10:16:43.107Z,47.37
2018-07-06T10:19:11.498Z,46.91
2018-07-06T10:21:39.870Z,47.04
2018-07-06T10:24:08.263Z,46.89
2018-07-06T10:26:36.646Z,45.32
2018-07-06T10:30:15.251Z,45.53
2018-07-06T10:32:43.635Z,46.03
2018-07-06T10:35:12.019Z,46.45
2018-07-06T10:37:40.393Z,45.33
2018-07-06T10:40:08.850Z,45.65
2018-07-06T10:42:37.226Z,45.15
2018-07-06T10:45:05.744Z,45.14
2018-07-06T10:47:34.115Z,44.69
2018-07-06T10:50:02.507Z,43.86
2018-07-06T10:52:30.876Z,44.11
2018-07-06T10:54:59.284Z,44.82
2018-07-06T10:57:27.654Z,44.60
2018-07-06T10:59:56.074Z,43.61
2018-07-06T11:02:24.447Z,41.95
2018-07-06T11:04:52.863Z,41.90
2018-07-06T11:07:21.254Z,41.48
2018-07-06T11:09:49.618Z,41.39
2018-07-06T11:12:18.015Z,40.77
2018-07-06T11:14:46.382Z,40.65
2018-07-06T11:17:14.776Z,41.15
2018-07-06T11:19:43.155Z,41.45
2018-07-06T11:22:11.558Z,40.48
2018-07-06T11:24:39.930Z,39.40
2018-07-06T11:27:08.338Z,39.59
2018-07-06T11:29:36.721Z,39.40
2018-07-06T11:32:05.202Z,41.00
2018-07-06T11:34:33.540Z,40.97
2018-07-06T11:37:01.934Z,40.35
2018-07-06T11:39:30.306Z,39.34
2018-07-06T11:41:58.715Z,39.26
2018-07-06T11:44:27.095Z,38.83
2018-07-06T11:46:55.499Z,37.44
2018-07-06T11:49:23.879Z,38.14
2018-07-06T11:51:52.298Z,38.43
2018-07-06T11:54:20.775Z,39.24
2018-07-06T11:56:49.147Z,40.27
2018-07-06T11:59:17.555Z,38.99
2018-07-06T12:01:45.962Z,38.40
2018-07-06T12:04:14.446Z,39.01
2018-07-06T12:06:42.770Z,38.56
2018-07-06T12:09:11.199Z,39.13
2018-07-06T12:11:39.574Z,39.60
2018-07-06T12:14:07.970Z,37.95
2018-07-06T12:16:36.356Z,37.73
2018-07-06T12:19:04.767Z,35.89
2018-07-06T12:21:33.139Z,36.95
2018-07-06T12:24:01.551Z,35.56
2018-07-06T12:26:29.935Z,35.20
2018-07-06T12:28:58.343Z,35.05
2018-07-06T12:31:26.743Z,35.02
2018-07-06T12:33:55.174Z,35.29
2018-07-06T12:36:23.604Z,35.65
2018-07-06T12:38:52.633Z,35.12
2018-07-06T12:41:21.113Z,33.64
2018-07-06T12:43:49.531Z,34.31
2018-07-06T12:46:17.911Z,32.85
2018-07-06T12:48:46.359Z,30.64
2018-07-06T12:51:14.746Z,32.86
2018-07-06T12:53:43.151Z,33.56
2018-07-06T12:56:11.531Z,33.84
2018-07-06T12:58:40.095Z,35.67
2018-07-06T13:01:08.338Z,35.34
2018-07-06T13:03:36.763Z,34.04
2018-07-06T13:06:05.155Z,34.06
2018-07-06T13:08:33.558Z,33.63
2018-07-06T13:11:01.988Z,34.03
2018-07-06T13:13:30.368Z,33.30
2018-07-06T13:15:58.778Z,34.32
2018-07-06T13:18:27.270Z,33.01
2018-07-06T13:20:55.668Z,33.55
2018-07-06T13:23:24.066Z,32.13
2018-07-06T13:25:52.505Z,32.81
2018-07-06T13:28:20.869Z,32.14
2018-07-06T13:30:49.263Z,32.97
2018-07-06T13:33:17.639Z,32.54
2018-07-06T13:35:46.038Z,32.61
2018-07-06T13:38:14.419Z,33.01
2018-07-06T13:40:42.829Z,31.94
2018-07-06T13:43:11.238Z,31.28
2018-07-06T13:45:39.654Z,29.69
2018-07-06T13:48:08.044Z,30.35
2018-07-06T13:50:36.445Z,29.10
2018-07-06T13:53:05.005Z,29.92
2018-07-06T13:55:33.422Z,28.52
2018-07-06T13:58:01.822Z,28.00
2018-07-06T14:00:30.242Z,27.18
2018-07-06T14:02:58.626Z,27.87
2018-07-06T14:05:27.023Z,27.49
2018-07-06T14:07:55.418Z,27.73
2018-07-06T14:10:23.906Z,26.27
2018-07-06T14:12:52.293Z,27.30
2018-07-06T14:15:20.748Z,27.26
2018-07-06T14:17:49.144Z,26.13
2018-07-06T14:20:17.573Z,26.53
2018-07-06T14:22:45.952Z,27.42
2018-07-06T14:25:14.346Z,25.91
2018-07-06T14:27:42.718Z,25.85
2018-07-06T14:30:11.126Z,27.43
2018-07-06T14:32:39.514Z,26.45
2018-07-06T14:35:08.083Z,27.17
2018-07-06T14:37:36.488Z,27.22
2018-07-06T14:40:04.884Z,27.35
2018-07-06T14:42:33.312Z,25.83
2018-07-06T14:45:01.702Z,26.04
2018-07-06T14:47:30.107Z,26.16
2018-07-06T14:49:58.486Z,25.51
2018-07-06T14:52:26.894Z,25.73
2018-07-06T14:54:55.265Z,24.66
2018-07-06T14:57:23.783Z,24.80
2018-07-06T14:59:52.218Z,25.10
2018-07-06T15:02:20.643Z,23.89
2018-07-06T15:04:49.043Z,23.21
2018-07-06T15:07:17.472Z,23.19
2018-07-06T15:09:45.880Z,23.09
2018-07-06T15:12:14.336Z,25.09
2018-07-06T15:14:43.147Z,24.24
2018-07-06T15:17:11.660Z,24.41
2018-07-06T15:19:40.071Z,24.55
2018-07-06T15:22:08.606Z,24.63
2018-07-06T15:24:36.999Z,24.63
2018-07-06T15:27:05.446Z,24.83
2018-07-06T15:29:33.838Z,25.18
2018-07-06T15:32:02.274Z,25.93
2018-07-06T15:34:30.652Z,24.87
2018-07-06T15:36:59.055Z,25.30
2018-07-06T15:39:27.428Z,24.52
2018-07-06T15:41:55.826Z,23.70
2018-07-06T15:44:24.206Z,24.20
2018-07-06T15:46:52.907Z,24.43
2018-07-06T15:49:21.567Z,25.26
2018-07-06T15:51:49.958Z,24.59
2018-07-06T15:54:18.362Z,24.79
2018-07-06T15:56:46.730Z,25.04
2018-07-06T15:59:15.172Z,25.37
2018-07-06T16:01:43.556Z,25.11
2018-07-06T16:04:11.954Z,24.27
2018-07-06T16:06:40.338Z,25.45
2018-07-06T16:09:08.767Z,24.78
2018-07-06T16:11:37.150Z,24.09
2018-07-06T16:14:05.571Z,24.34
2018-07-06T16:16:33.963Z,24.12
2018-07-06T16:19:02.372Z,24.25
2018-07-06T16:21:30.746Z,25.13
2018-07-06T16:23:59.410Z,24.59
2018-07-06T16:26:27.834Z,25.54
2018-07-06T16:28:56.283Z,25.16
2018-07-06T16:31:24.663Z,24.69
2018-07-06T16:33:53.078Z,24.36
2018-07-06T16:36:21.517Z,24.88
2018-07-06T16:38:49.907Z,24.20
2018-07-06T16:41:18.291Z,24.26
2018-07-06T16:43:46.695Z,24.64
2018-07-06T16:46:15.070Z,23.75
2018-07-06T16:48:43.486Z,23.10
2018-07-06T16:51:11.867Z,23.79
2018-07-06T16:53:40.576Z,23.87
2018-07-06T16:56:08.962Z,23.55
2018-07-06T16:58:37.450Z,23.25
2018-07-06T17:01:05.893Z,23.60
2018-07-06T17:03:34.327Z,24.96
2018-07-06T17:06:02.694Z,24.99
2018-07-06T17:08:31.123Z,24.10
2018-07-06T17:10:59.512Z,24.08
2018-07-06T17:13:27.879Z,23.74
2018-07-06T17:15:56.288Z,24.19
2018-07-06T17:18:24.697Z,24.77
2018-07-06T17:20:53.103Z,24.86
2018-07-06T17:23:21.488Z,25.25
2018-07-06T17:25:50.020Z,24.80
2018-07-06T17:28:18.399Z,25.37
2018-07-06T17:30:46.804Z,24.91
2018-07-06T17:33:15.183Z,24.93
2018-07-06T17:35:43.843Z,25.05
2018-07-06T17:38:12.223Z,23.98
2018-07-06T17:40:40.626Z,24.24
2018-07-06T17:43:09.002Z,23.62
2018-07-06T17:45:37.407Z,23.66
2018-07-06T17:48:06.171Z,24.04
2018-07-06T17:50:34.576Z,23.93
2018-07-06T17:53:03.070Z,24.96
2018-07-06T17:55:31.463Z,25.25
2018-07-06T17:57:59.909Z,25.80
2018-07-06T18:00:28.559Z,25.79
2018-07-06T18:02:57.026Z,27.52
2018-07-06T18:05:25.723Z,26.87
2018-07-06T18:07:54.146Z,28.84
2018-07-06T18:10:22.646Z,28.97
2018-07-06T18:12:51.023Z,30.10
2018-07-06T18:15:19.572Z,29.77
2018-07-06T18:17:47.961Z,31.39
2018-07-06T18:20:16.376Z,31.73
2018-07-06T18:22:45.103Z,32.81
2018-07-06T18:25:13.538Z,33.38
2018-07-06T18:27:42.088Z,33.80
2018-07-06T18:30:10.535Z,34.61
2018-07-06T18:32:38.923Z,34.60
2018-07-06T18:35:07.358Z,34.33
2018-07-06T18:37:36.505Z,34.81
2018-07-06T18:40:04.854Z,34.99
2018-07-06T18:42:33.463Z,35.40
2018-07-06T18:45:01.843Z,35.78
2018-07-06T18:47:30.290Z,35.81
2018-07-06T18:49:58.658Z,36.79
2018-07-06T18:52:27.078Z,37.43
2018-07-06T18:54:55.458Z,36.84
2018-07-06T18:57:23.854Z,37.51
2018-07-06T18:59:52.277Z,37.59
2018-07-06T19:02:20.678Z,38.50
2018-07-06T19:04:49.053Z,37.94
2018-07-06T19:07:17.479Z,38.14
2018-07-06T19:09:45.855Z,39.45
2018-07-06T19:12:14.313Z,38.95
2018-07-06T19:14:42.687Z,40.00
2018-07-06T19:17:11.087Z,40.03
2018-07-06T19:19:39.467Z,39.33
2018-07-06T19:22:07.854Z,39.62
2018-07-06T19:24:36.579Z,40.54
2018-07-06T19:27:04.979Z,40.46
2018-07-06T19:29:33.374Z,40.19
2018-07-06T19:32:01.772Z,40.54
2018-07-06T19:34:30.193Z,41.14
2018-07-06T19:36:58.640Z,41.53
2018-07-06T19:39:27.022Z,41.99
2018-07-06T19:41:55.437Z,41.32
2018-07-06T19:44:23.811Z,42.17
2018-07-06T19:46:52.951Z,42.48
2018-07-06T19:49:21.331Z,42.79
2018-07-06T19:51:49.866Z,43.02
2018-07-06T19:54:18.219Z,42.93
2018-07-06T19:56:46.606Z,42.70
2018-07-06T19:59:15.008Z,43.75
2018-07-06T20:01:43.428Z,43.50
2018-07-06T20:04:11.846Z,44.19
2018-07-06T20:06:40.235Z,44.55
2018-07-06T20:09:08.686Z,44.02
2018-07-06T20:11:37.113Z,45.21
2018-07-06T20:14:05.551Z,45.14
2018-07-06T20:16:33.943Z,44.83
2018-07-06T20:19:02.359Z,45.79
2018-07-06T20:21:30.746Z,45.66
2018-07-06T20:23:59.158Z,46.12
2018-07-06T20:26:27.545Z,46.19
2018-07-06T20:28:55.971Z,46.24
2018-07-06T20:31:24.355Z,47.24
2018-07-06T20:33:52.846Z,46.50
2018-07-06T20:36:21.235Z,46.76
2018-07-06T20:38:49.656Z,47.11
2018-07-06T20:41:18.107Z,47.13
2018-07-06T20:43:46.511Z,47.79
2018-07-06T20:46:14.888Z,47.15
2018-07-06T20:48:43.294Z,47.38
2018-07-06T20:51:11.678Z,48.05
2018-07-06T20:53:40.105Z,48.55
2018-07-06T20:56:08.498Z,48.83
2018-07-06T20:58:38.555Z,48.35
2018-07-06T21:01:06.939Z,48.66
2018-07-06T21:03:35.342Z,48.97
2018-07-06T21:06:03.723Z,50.22
2018-07-06T21:08:32.119Z,49.58
2018-07-06T21:11:00.518Z,50.57
2018-07-06T21:13:28.894Z,50.03
2018-07-06T21:15:57.314Z,50.86
2018-07-06T21:18:25.705Z,51.20
2018-07-06T21:20:54.151Z,51.08
2018-07-06T21:23:22.594Z,51.76
2018-07-06T21:25:50.998Z,51.39
2018-07-06T21:28:19.375Z,51.56
2018-07-06T21:30:47.779Z,52.58
2018-07-06T21:33:16.510Z,52.15
2018-07-06T21:35:44.966Z,52.71
2018-07-06T21:38:13.315Z,52.63
2018-07-06T21:40:41.720Z,53.80
2018-07-06T21:43:10.103Z,53.66
2018-07-06T21:45:38.499Z,54.06
2018-07-06T21:48:06.887Z,54.33
2018-07-06T21:50:35.314Z,53.71
2018-07-06T21:53:03.686Z,53.82
2018-07-06T21:55:32.253Z,54.28
2018-07-06T21:58:00.498Z,54.50
2018-07-06T22:00:37.931Z,55.01
2018-07-06T22:03:06.891Z,54.82
2018-07-06T22:05:35.295Z,55.71
2018-07-06T22:08:04.803Z,55.20
2018-07-06T22:10:33.873Z,55.95
2018-07-06T22:13:02.275Z,56.00
2018-07-06T22:15:46.920Z,56.13
2018-07-06T22:18:17.671Z,56.43
2018-07-06T22:20:46.949Z,56.70
2018-07-06T22:23:15.806Z,56.75
2018-07-06T22:25:44.426Z,56.33
2018-07-06T22:28:12.843Z,56.73
2018-07-06T22:30:41.288Z,57.25
2018-07-06T22:33:09.687Z,57.47
2018-07-06T22:35:38.095Z,57.35
2018-07-06T22:38:06.503Z,57.60
2018-07-06T22:40:34.874Z,57.83
2018-07-06T22:43:03.282Z,58.32
2018-07-06T22:45:31.686Z,57.81
2018-07-06T22:48:00.080Z,58.41
2018-07-06T22:50:28.490Z,58.94
2018-07-06T22:52:56.871Z,58.66
2018-07-06T22:55:25.279Z,59.33
2018-07-06T22:57:53.650Z,59.04
2018-07-06T23:00:22.051Z,59.74
2018-07-06T23:02:50.432Z,59.92
2018-07-06T23:05:20.046Z,59.34
2018-07-06T23:07:48.443Z,59.64
2018-07-06T23:10:16.842Z,59.31
2018-07-06T23:12:45.246Z,60.28
2018-07-06T23:15:13.647Z,60.08
2018-07-06T23:17:42.026Z,59.95
2018-07-06T23:20:10.427Z,60.75
2018-07-06T23:23:07.867Z,60.81
2018-07-06T23:25:37.658Z,60.68
2018-07-06T23:28:06.366Z,60.90
2018-07-06T23:30:34.794Z,61.00
2018-07-06T23:33:04.147Z,61.46
2018-07-06T23:35:32.775Z,61.89
2018-07-06T23:38:01.150Z,61.39
2018-07-06T23:40:29.539Z,61.33
2018-07-06T23:42:58.101Z,62.02
2018-07-06T23:45:26.510Z,62.08
2018-07-06T23:47:54.903Z,62.48
2018-07-06T23:50:23.622Z,62.76
2018-07-06T23:52:52.022Z,62.77
2018-07-06T23:55:20.461Z,62.92
2018-07-06T23:57:49.137Z,63.54
